createdAt,value
2022-12-14T00:00:19.436Z,34.40
2022-12-14T00:02:50.794Z,29.88
2022-12-14T00:05:22.285Z,32.88
2022-12-14T00:07:53.100Z,30.73
2022-12-14T00:10:24.106Z,32.90
2022-12-14T00:12:54.883Z,35.75
2022-12-14T00:15:28.357Z,30.75
2022-12-14T00:17:59.419Z,30.77
2022-12-14T00:20:30.572Z,29.65
2022-12-14T00:23:01.337Z,31.52
2022-12-14T00:25:32.097Z,31.42
2022-12-14T00:28:02.833Z,28.70
2022-12-14T00:30:36.211Z,31.13
2022-12-14T00:33:06.988Z,30.85
2022-12-14T00:35:37.897Z,29.58
2022-12-14T00:38:08.653Z,27.98
2022-12-14T00:40:39.648Z,24.90
2022-12-14T00:43:10.444Z,27.83
2022-12-14T00:45:46.368Z,25.00
2022-12-14T00:48:17.853Z,27.73
2022-12-14T00:50:49.597Z,25.95
2022-12-14T00:53:20.694Z,27.15
2022-12-14T00:55:52.627Z,26.75
2022-12-14T00:58:27.608Z,28.73
2022-12-14T01:01:09.812Z,30.05
2022-12-14T01:03:40.891Z,28.70
2022-12-14T01:06:21.853Z,28.65
2022-12-14T01:08:53.143Z,26.77
2022-12-14T01:11:23.959Z,26.27
2022-12-14T01:13:54.714Z,26.73
2022-12-14T01:16:28.145Z,21.48
2022-12-14T01:18:58.982Z,24.83
2022-12-14T01:21:30.538Z,27.77
2022-12-14T01:24:03.202Z,25.40
2022-12-14T01:26:36.005Z,24.40
2022-12-14T01:29:07.580Z,24.25
2022-12-14T01:31:41.668Z,23.85
2022-12-14T01:34:13.362Z,21.33
2022-12-14T01:36:44.432Z,25.65
2022-12-14T01:39:17.400Z,25.35
2022-12-14T01:41:50.357Z,23.15
2022-12-14T01:44:50.771Z,24.42
2022-12-14T01:47:29.690Z,24.55
2022-12-14T01:50:08.967Z,23.92
2022-12-14T01:52:44.061Z,24.08
2022-12-14T01:55:19.144Z,25.80
2022-12-14T01:57:53.807Z,22.92
2022-12-14T02:00:24.807Z,26.63
2022-12-14T02:03:02.326Z,23.08
2022-12-14T02:05:35.844Z,26.27
2022-12-14T02:08:08.163Z,25.95
2022-12-14T02:10:39.284Z,24.40
2022-12-14T02:13:16.053Z,22.48
2022-12-14T02:18:23.467Z,23.67
2022-12-14T02:21:20.290Z,22.33
2022-12-14T02:24:10.880Z,23.30
2022-12-14T02:26:59.395Z,21.92
2022-12-14T02:29:50.118Z,21.25
2022-12-14T02:32:50.844Z,20.67
2022-12-14T02:35:29.368Z,21.70
2022-12-14T02:38:10.951Z,24.13
2022-12-14T02:40:49.236Z,21.17
2022-12-14T02:43:28.171Z,21.15
2022-12-14T02:46:12.862Z,22.83
2022-12-14T02:48:46.628Z,20.38
2022-12-14T02:51:26.811Z,21.95
2022-12-14T02:54:04.336Z,20.75
2022-12-14T02:56:40.206Z,20.45
2022-12-14T02:59:13.144Z,23.98
2022-12-14T03:01:49.745Z,22.17
2022-12-14T03:04:20.981Z,21.70
2022-12-14T03:07:05.379Z,20.55
2022-12-14T03:09:37.561Z,20.27
2022-12-14T03:12:13.726Z,20.58
2022-12-14T03:14:48.012Z,22.80
2022-12-14T03:17:25.118Z,21.33
2022-12-14T03:19:59.988Z,20.13
2022-12-14T03:22:34.900Z,20.15
2022-12-14T03:25:11.014Z,18.30
2022-12-14T03:27:47.568Z,19.55
2022-12-14T03:30:43.904Z,21.48
2022-12-14T03:33:19.974Z,20.85
2022-12-14T03:35:58.398Z,19.75
2022-12-14T03:38:35.609Z,20.02
2022-12-14T03:41:16.411Z,20.60
2022-12-14T03:44:04.059Z,19.95
2022-12-14T03:46:43.110Z,18.13
2022-12-14T03:49:23.392Z,19.65
2022-12-14T03:52:00.768Z,17.88
2022-12-14T03:54:42.746Z,18.80
2022-12-14T03:57:24.294Z,16.20
2022-12-14T04:00:03.930Z,18.33
2022-12-14T04:02:48.952Z,19.38
2022-12-14T04:05:28.277Z,16.65
2022-12-14T04:08:07.253Z,18.33
2022-12-14T04:10:55.241Z,20.55
2022-12-14T04:13:49.303Z,18.75
2022-12-14T04:16:38.045Z,18.92
2022-12-14T04:19:12.834Z,18.35
2022-12-14T04:21:50.822Z,20.10
2022-12-14T04:24:40.986Z,22.58
2022-12-14T04:27:18.192Z,19.15
2022-12-14T04:30:01.053Z,18.83
2022-12-14T04:32:37.508Z,22.50
2022-12-14T04:35:15.275Z,21.00
2022-12-14T04:37:53.453Z,19.25
2022-12-14T04:40:27.997Z,19.50
2022-12-14T04:43:02.022Z,21.02
2022-12-14T04:45:38.572Z,19.35
2022-12-14T04:48:16.248Z,22.63
2022-12-14T04:50:52.099Z,20.50
2022-12-14T04:53:29.994Z,22.05
2022-12-14T04:56:05.117Z,21.27
2022-12-14T04:58:37.018Z,19.60
2022-12-14T05:01:28.726Z,25.70
2022-12-14T05:04:10.925Z,22.73
2022-12-14T05:06:50.598Z,22.48
2022-12-14T05:09:28.422Z,25.92
2022-12-14T05:12:07.875Z,23.90
2022-12-14T05:14:43.500Z,20.77
2022-12-14T05:17:15.008Z,23.45
2022-12-14T05:19:49.184Z,23.27
2022-12-14T05:22:21.051Z,19.92
2022-12-14T05:24:54.430Z,21.52
2022-12-14T05:27:25.147Z,20.67
2022-12-14T05:29:55.904Z,23.30
2022-12-14T05:32:26.895Z,21.08
2022-12-14T05:34:57.780Z,19.10
2022-12-14T05:37:28.730Z,20.15
2022-12-14T05:40:02.189Z,21.33
2022-12-14T05:42:32.994Z,21.95
2022-12-14T05:45:03.815Z,20.13
2022-12-14T05:47:34.543Z,18.45
2022-12-14T05:50:05.240Z,20.75
2022-12-14T05:52:36.023Z,18.55
2022-12-14T05:55:10.468Z,19.45
2022-12-14T05:57:41.167Z,18.80
2022-12-14T06:00:13.201Z,18.70
2022-12-14T06:02:43.641Z,17.23
2022-12-14T06:05:13.923Z,17.10
2022-12-14T06:07:44.262Z,19.17
2022-12-14T06:10:17.223Z,20.48
2022-12-14T06:12:47.474Z,19.75
2022-12-14T06:15:17.902Z,18.15
2022-12-14T06:17:49.128Z,19.77
2022-12-14T06:20:20.023Z,17.52
2022-12-14T06:22:50.323Z,20.20
2022-12-14T06:25:23.845Z,17.95
2022-12-14T06:27:57.266Z,26.77
2022-12-14T06:30:27.507Z,25.40
2022-12-14T06:32:57.769Z,58.90
2022-12-14T06:35:28.025Z,80.07
2022-12-14T06:37:58.378Z,42.60
2022-12-14T06:40:31.203Z,38.65
2022-12-14T06:43:01.416Z,20.75
2022-12-14T06:45:31.754Z,19.08
2022-12-14T06:48:02.178Z,16.20
2022-12-14T06:50:32.480Z,18.15
2022-12-14T06:53:02.746Z,19.95
2022-12-14T06:55:35.916Z,18.60
2022-12-14T06:58:06.187Z,17.80
2022-12-14T07:00:36.459Z,16.70
2022-12-14T07:03:07.047Z,18.33
2022-12-14T07:05:37.404Z,17.60
2022-12-14T07:08:08.089Z,15.52
2022-12-14T07:10:41.024Z,15.68
2022-12-14T07:13:11.347Z,17.35
2022-12-14T07:15:42.056Z,19.73
2022-12-14T07:18:12.610Z,21.35
2022-12-14T07:20:43.220Z,26.60
2022-12-14T07:23:13.577Z,24.42
2022-12-14T07:25:46.466Z,36.10
2022-12-14T07:28:19.643Z,58.22
2022-12-14T07:30:50.350Z,24.10
2022-12-14T07:33:20.636Z,32.55
2022-12-14T07:35:50.886Z,26.40
2022-12-14T07:38:21.554Z,24.90
2022-12-14T07:40:54.444Z,27.70
2022-12-14T07:43:25.086Z,33.47
2022-12-14T07:45:55.578Z,29.05
2022-12-14T07:48:25.759Z,28.88
2022-12-14T07:50:56.017Z,25.40
2022-12-14T07:53:26.630Z,29.50
2022-12-14T07:56:03.134Z,26.50
2022-12-14T07:58:33.796Z,21.35
2022-12-14T08:01:15.242Z,24.40
2022-12-14T08:03:47.722Z,26.27
2022-12-14T08:06:19.519Z,24.90
2022-12-14T08:08:50.367Z,26.42
2022-12-14T08:11:24.474Z,23.38
2022-12-14T08:13:56.504Z,23.52
2022-12-14T08:16:27.592Z,23.63
2022-12-14T08:19:00.150Z,25.45
2022-12-14T08:21:31.308Z,24.13
2022-12-14T08:24:01.799Z,24.83
2022-12-14T08:26:36.038Z,27.17
2022-12-14T08:29:06.902Z,23.98
2022-12-14T08:31:37.657Z,27.15
2022-12-14T08:34:09.785Z,21.95
2022-12-14T08:36:40.149Z,25.30
2022-12-14T08:39:13.445Z,21.00
2022-12-14T08:41:46.487Z,20.45
2022-12-14T08:44:18.844Z,21.85
2022-12-14T08:46:49.366Z,21.98
2022-12-14T08:49:19.874Z,21.30
2022-12-14T08:51:50.108Z,22.88
2022-12-14T08:54:20.629Z,19.67
2022-12-14T08:56:53.479Z,21.30
2022-12-14T08:59:52.033Z,22.10
2022-12-14T09:02:14.431Z,22.45
2022-12-14T09:04:44.742Z,23.63
2022-12-14T09:07:14.968Z,24.30
2022-12-14T09:09:45.205Z,22.42
2022-12-14T09:12:18.236Z,24.67
2022-12-14T09:14:49.679Z,23.10
2022-12-14T09:17:20.762Z,24.90
2022-12-14T09:19:51.073Z,23.23
2022-12-14T09:22:21.788Z,26.02
2022-12-14T09:24:52.422Z,24.10
2022-12-14T09:27:25.399Z,24.67
2022-12-14T09:29:56.091Z,24.75
2022-12-14T09:32:26.432Z,24.10
2022-12-14T09:34:56.739Z,30.67
2022-12-14T09:37:26.966Z,25.80
2022-12-14T09:39:57.263Z,26.35
2022-12-14T09:42:50.714Z,27.05
2022-12-14T09:45:28.128Z,26.48
2022-12-14T09:48:03.943Z,24.58
2022-12-14T09:50:34.846Z,27.50
2022-12-14T09:53:08.995Z,29.08
2022-12-14T09:55:41.900Z,29.23
2022-12-14T09:58:20.849Z,24.42
2022-12-14T10:00:57.275Z,25.20
2022-12-14T10:03:52.489Z,23.45
2022-12-14T10:06:35.586Z,24.20
2022-12-14T10:09:15.329Z,24.15
2022-12-14T10:11:55.466Z,22.27
2022-12-14T10:14:38.377Z,24.23
2022-12-14T10:17:20.921Z,24.88
2022-12-14T10:19:57.034Z,27.40
2022-12-14T10:22:32.042Z,26.55
2022-12-14T10:25:09.561Z,21.77
2022-12-14T10:28:09.151Z,28.67
2022-12-14T10:30:34.246Z,25.67
2022-12-14T10:33:13.740Z,24.25
2022-12-14T10:35:52.941Z,27.63
2022-12-14T10:38:30.033Z,20.52
2022-12-14T10:41:07.046Z,19.58
2022-12-14T10:46:23.232Z,23.25
2022-12-14T10:48:59.640Z,20.80
2022-12-14T10:51:37.328Z,21.52
2022-12-14T10:54:18.972Z,19.65
2022-12-14T10:56:51.028Z,22.38
2022-12-14T10:59:36.731Z,22.15
2022-12-14T11:02:17.749Z,17.63
2022-12-14T11:04:52.332Z,21.52
2022-12-14T11:07:24.567Z,19.20
2022-12-14T11:09:55.531Z,20.23
2022-12-14T11:12:28.328Z,20.25
2022-12-14T11:15:01.489Z,21.02
2022-12-14T11:17:43.282Z,20.92
2022-12-14T11:20:22.303Z,18.55
2022-12-14T11:22:54.935Z,20.92
2022-12-14T11:25:36.658Z,16.42
2022-12-14T11:28:18.650Z,22.90
2022-12-14T11:31:01.528Z,17.90
2022-12-14T11:33:38.258Z,17.55
2022-12-14T11:36:10.144Z,19.23
2022-12-14T11:38:40.676Z,17.98
2022-12-14T11:41:12.123Z,19.05
2022-12-14T11:43:42.775Z,17.88
2022-12-14T11:46:13.156Z,20.17
2022-12-14T11:48:51.920Z,16.27
2022-12-14T11:51:22.316Z,17.60
2022-12-14T11:54:05.416Z,19.52
2022-12-14T11:56:40.202Z,19.70
2022-12-14T11:59:19.946Z,18.35
2022-12-14T12:01:50.669Z,18.70
2022-12-14T12:04:23.755Z,18.02
2022-12-14T12:06:54.044Z,17.40
2022-12-14T12:09:30.427Z,18.48
2022-12-14T12:12:00.807Z,18.27
2022-12-14T12:14:37.968Z,19.42
2022-12-14T12:17:20.954Z,16.70
2022-12-14T12:19:54.795Z,16.13
2022-12-14T12:22:25.685Z,14.32
2022-12-14T12:25:24.912Z,14.95
2022-12-14T12:28:00.466Z,17.40
2022-12-14T12:30:34.434Z,15.65
2022-12-14T12:33:13.898Z,14.98
2022-12-14T12:35:51.859Z,12.80
2022-12-14T12:38:34.143Z,15.73
2022-12-14T12:41:09.166Z,17.05
2022-12-14T12:43:49.833Z,21.55
2022-12-14T12:46:22.773Z,14.80
2022-12-14T12:48:56.443Z,15.73
2022-12-14T12:51:32.372Z,14.45
2022-12-14T12:54:08.483Z,15.40
2022-12-14T12:56:48.135Z,13.33
2022-12-14T12:59:22.753Z,14.75
2022-12-14T13:01:57.634Z,14.80
2022-12-14T13:04:36.285Z,14.77
2022-12-14T13:07:20.355Z,15.60
2022-12-14T13:09:54.991Z,17.25
2022-12-14T13:12:28.844Z,13.10
2022-12-14T13:15:01.191Z,13.25
2022-12-14T13:17:39.516Z,12.90
2022-12-14T13:20:22.088Z,14.98
2022-12-14T13:22:57.338Z,17.10
2022-12-14T13:25:40.004Z,20.48
2022-12-14T13:28:31.484Z,24.48
2022-12-14T13:31:13.893Z,20.55
2022-12-14T13:34:13.736Z,20.42
2022-12-14T13:37:07.668Z,18.30
2022-12-14T13:40:15.294Z,19.35
2022-12-14T13:42:54.696Z,22.13
2022-12-14T13:45:30.779Z,22.23
2022-12-14T13:48:01.798Z,20.05
2022-12-14T13:50:36.237Z,21.80
2022-12-14T13:53:16.202Z,18.23
2022-12-14T13:55:55.681Z,21.45
2022-12-14T13:58:34.816Z,19.40
2022-12-14T14:01:11.924Z,19.25
2022-12-14T14:03:51.331Z,21.83
2022-12-14T14:06:38.162Z,18.75
2022-12-14T14:09:59.129Z,17.63
2022-12-14T14:12:52.646Z,18.95
2022-12-14T14:15:38.195Z,16.27
2022-12-14T14:18:19.029Z,15.65
2022-12-14T14:20:57.000Z,19.17
2022-12-14T14:23:56.004Z,19.33
2022-12-14T14:26:37.283Z,16.87
2022-12-14T14:29:26.077Z,18.52
2022-12-14T14:32:01.501Z,16.13
2022-12-14T14:34:41.717Z,15.73
2022-12-14T14:37:36.304Z,19.40
2022-12-14T14:40:38.245Z,21.17
2022-12-14T14:43:25.831Z,17.90
2022-12-14T14:46:01.487Z,17.90
2022-12-14T14:48:37.005Z,19.05
2022-12-14T14:51:20.455Z,20.38
2022-12-14T14:53:51.293Z,22.27
2022-12-14T14:56:40.197Z,18.40
2022-12-14T14:59:40.333Z,21.08
2022-12-14T15:02:45.818Z,22.42
2022-12-14T15:08:21.009Z,22.40
2022-12-14T15:10:52.811Z,22.40
2022-12-14T15:13:26.763Z,44.38
2022-12-14T15:15:57.846Z,31.13
2022-12-14T15:18:32.307Z,77.53
2022-12-14T15:21:06.212Z,26.90
2022-12-14T15:23:39.989Z,22.35
2022-12-14T15:26:17.494Z,24.98
2022-12-14T15:28:51.375Z,22.00
2022-12-14T15:31:30.439Z,23.98
2022-12-14T15:34:05.888Z,25.05
2022-12-14T15:36:40.279Z,26.05
2022-12-14T15:39:29.451Z,24.10
2022-12-14T15:42:09.062Z,23.48
2022-12-14T15:44:43.864Z,24.80
2022-12-14T15:47:31.427Z,23.80
2022-12-14T15:50:20.027Z,20.42
2022-12-14T15:52:51.505Z,23.10
2022-12-14T15:55:35.760Z,24.00
2022-12-14T15:58:11.922Z,21.58
2022-12-14T16:00:46.883Z,19.92
2022-12-14T16:03:30.620Z,21.20
2022-12-14T16:06:04.735Z,21.10
2022-12-14T16:08:38.304Z,17.52
2022-12-14T16:11:15.689Z,18.65
2022-12-14T16:13:47.113Z,19.15
2022-12-14T16:16:18.487Z,17.20
2022-12-14T16:18:51.455Z,17.08
2022-12-14T16:21:32.079Z,17.80
2022-12-14T16:24:03.743Z,15.68
2022-12-14T16:26:38.890Z,14.82
2022-12-14T16:29:11.716Z,16.75
2022-12-14T16:31:42.598Z,13.57
2022-12-14T16:34:19.047Z,17.17
2022-12-14T16:39:49.768Z,16.83
2022-12-14T16:42:23.425Z,16.67
2022-12-14T16:44:55.498Z,22.45
2022-12-14T16:47:38.856Z,20.08
2022-12-14T16:50:55.989Z,16.88
2022-12-14T16:53:26.159Z,14.45
2022-12-14T16:56:06.043Z,12.95
2022-12-14T16:58:37.981Z,13.30
2022-12-14T17:01:10.789Z,12.18
2022-12-14T17:03:41.450Z,13.80
2022-12-14T17:06:21.702Z,13.50
2022-12-14T17:08:54.612Z,12.15
2022-12-14T17:11:24.876Z,11.15
2022-12-14T17:13:55.240Z,13.95
2022-12-14T17:16:25.868Z,13.30
2022-12-14T17:18:56.263Z,13.68
2022-12-14T17:21:29.915Z,15.13
2022-12-14T17:24:02.891Z,14.63
2022-12-14T17:26:34.993Z,16.75
2022-12-14T17:29:05.429Z,17.02
2022-12-14T17:31:35.921Z,20.15
2022-12-14T17:34:06.367Z,20.25
2022-12-14T17:36:36.770Z,17.27
2022-12-14T17:39:09.677Z,41.38
2022-12-14T17:41:42.603Z,22.23
2022-12-14T17:44:17.093Z,25.63
2022-12-14T17:46:48.846Z,22.17
2022-12-14T17:49:34.029Z,19.50
2022-12-14T17:52:07.435Z,24.98
2022-12-14T17:54:40.423Z,21.98
2022-12-14T17:57:17.479Z,24.38
2022-12-14T17:59:47.962Z,23.52
2022-12-14T18:02:30.599Z,23.90
2022-12-14T18:05:01.101Z,24.00
2022-12-14T18:07:31.695Z,25.27
2022-12-14T18:10:04.935Z,21.15
2022-12-14T18:12:35.403Z,26.83
2022-12-14T18:15:05.778Z,22.13
2022-12-14T18:17:36.087Z,23.20
2022-12-14T18:20:06.665Z,23.67
2022-12-14T18:22:37.050Z,23.50
2022-12-14T18:25:24.398Z,21.00
2022-12-14T18:27:54.867Z,19.23
2022-12-14T18:30:25.277Z,19.00
2022-12-14T18:32:56.355Z,17.17
2022-12-14T18:35:29.238Z,14.38
2022-12-14T18:38:00.198Z,15.27
2022-12-14T18:40:33.511Z,12.95
2022-12-14T18:43:08.284Z,14.50
2022-12-14T18:45:39.909Z,14.20
2022-12-14T18:48:10.648Z,14.20
2022-12-14T18:50:43.089Z,12.88
2022-12-14T18:53:16.577Z,11.93
2022-12-14T18:55:50.956Z,11.23
2022-12-14T18:58:23.807Z,11.75
2022-12-14T19:00:57.331Z,10.57
2022-12-14T19:03:29.588Z,12.20
2022-12-14T19:06:34.815Z,12.52
2022-12-14T19:08:58.250Z,14.38
2022-12-14T19:11:36.079Z,18.83
2022-12-14T19:14:07.050Z,13.65
2022-12-14T19:16:37.581Z,13.77
2022-12-14T19:19:08.490Z,13.57
2022-12-14T19:21:39.224Z,14.48
2022-12-14T19:24:13.653Z,12.23
2022-12-14T19:26:49.413Z,13.25
2022-12-14T19:29:19.987Z,13.60
2022-12-14T19:31:54.044Z,13.05
2022-12-14T19:34:27.860Z,15.10
2022-12-14T19:36:58.315Z,12.85
2022-12-14T19:39:28.599Z,13.75
2022-12-14T19:42:01.757Z,15.98
2022-12-14T19:44:35.914Z,16.30
2022-12-14T19:47:06.527Z,15.90
2022-12-14T19:49:36.912Z,16.95
2022-12-14T19:52:07.751Z,16.48
2022-12-14T19:54:39.926Z,15.07
2022-12-14T19:57:13.520Z,14.60
2022-12-14T19:59:44.172Z,16.80
2022-12-14T20:02:16.186Z,17.08
2022-12-14T20:04:47.706Z,15.23
2022-12-14T20:07:18.203Z,16.17
2022-12-14T20:09:48.496Z,16.88
2022-12-14T20:12:21.711Z,26.75
2022-12-14T20:14:52.412Z,17.85
2022-12-14T20:17:22.876Z,15.73
2022-12-14T20:19:53.230Z,18.92
2022-12-14T20:22:23.559Z,15.45
2022-12-14T20:24:53.850Z,19.25
2022-12-14T20:27:26.838Z,16.65
2022-12-14T20:29:57.087Z,13.05
2022-12-14T20:32:27.500Z,18.90
2022-12-14T20:34:58.024Z,20.65
2022-12-14T20:37:28.640Z,17.67
2022-12-14T20:39:58.994Z,17.15
2022-12-14T20:42:31.891Z,18.40
2022-12-14T20:45:07.026Z,17.20
2022-12-14T20:47:37.910Z,17.27
2022-12-14T20:50:09.063Z,15.07
2022-12-14T20:52:39.435Z,12.85
2022-12-14T20:55:10.401Z,16.38
2022-12-14T20:57:43.392Z,12.40
2022-12-14T21:00:15.280Z,12.60
2022-12-14T21:02:45.872Z,14.90
2022-12-14T21:05:16.321Z,14.70
2022-12-14T21:07:47.044Z,13.18
2022-12-14T21:10:17.379Z,16.17
2022-12-14T21:12:48.342Z,16.08
2022-12-14T21:15:19.466Z,15.18
2022-12-14T21:17:49.936Z,16.27
2022-12-14T21:20:20.564Z,11.77
2022-12-14T21:22:50.933Z,10.27
2022-12-14T21:25:21.446Z,13.10
2022-12-14T21:27:55.177Z,11.82
2022-12-14T21:30:25.528Z,12.52
2022-12-14T21:32:55.884Z,12.43
2022-12-14T21:35:26.130Z,12.25
2022-12-14T21:37:56.439Z,10.02
2022-12-14T21:40:39.176Z,13.38
2022-12-14T21:43:12.878Z,9.63
2022-12-14T21:45:45.668Z,8.65
2022-12-14T21:48:16.435Z,7.05
2022-12-14T21:50:46.664Z,7.05
2022-12-14T21:53:16.946Z,6.78
2022-12-14T21:55:51.789Z,7.25
2022-12-14T21:58:24.466Z,8.10
2022-12-14T22:00:54.861Z,6.65
2022-12-14T22:03:25.312Z,8.25
2022-12-14T22:05:55.593Z,9.23
2022-12-14T22:08:25.845Z,8.52
2022-12-14T22:10:56.265Z,8.15
2022-12-14T22:13:29.738Z,6.85
2022-12-14T22:16:00.259Z,6.95
2022-12-14T22:18:30.583Z,7.10
2022-12-14T22:21:05.789Z,8.07
2022-12-14T22:23:42.912Z,7.07
2022-12-14T22:26:14.381Z,9.85
2022-12-14T22:28:47.307Z,8.60
2022-12-14T22:31:17.631Z,7.32
2022-12-14T22:33:49.674Z,7.80
2022-12-14T22:36:20.687Z,10.30
2022-12-14T22:38:51.204Z,8.88
2022-12-14T22:41:22.541Z,7.45
2022-12-14T22:43:59.721Z,7.38
2022-12-14T22:46:31.968Z,8.77
2022-12-14T22:49:04.197Z,6.72
2022-12-14T22:51:34.568Z,6.80
2022-12-14T22:54:05.249Z,8.85
2022-12-14T22:56:41.408Z,12.77
2022-12-14T22:59:18.807Z,8.88
2022-12-14T23:01:50.057Z,10.52
2022-12-14T23:04:20.923Z,9.20
2022-12-14T23:06:51.327Z,10.38
2022-12-14T23:09:34.051Z,9.50
2022-12-14T23:12:21.625Z,12.52
2022-12-14T23:15:07.495Z,13.27
2022-12-14T23:17:50.213Z,9.82
2022-12-14T23:20:32.807Z,11.80
2022-12-14T23:23:15.464Z,11.57
2022-12-14T23:25:58.087Z,11.70
2022-12-14T23:28:40.792Z,11.40
2022-12-14T23:31:26.284Z,12.35
2022-12-14T23:34:08.969Z,12.93
2022-12-14T23:36:51.864Z,12.50
2022-12-14T23:39:34.594Z,10.43
2022-12-14T23:42:17.331Z,10.50
2022-12-14T23:45:00.106Z,12.23
2022-12-14T23:47:45.596Z,11.32
2022-12-14T23:50:32.482Z,12.00
2022-12-14T23:53:20.035Z,11.23
2022-12-14T23:56:02.652Z,11.85
2022-12-14T23:58:47.371Z,11.48
